Time;durP1;ratioP1;P1;durP2;ratioP2;P2;SDS_P1;SDS_P2;PMS_P1;PMS_P2;Temp;Humidity;BMP_temperature;BMP_pressure;BME280_temperature;BME280_humidity;BME280_pressure;Samples;Min_cycle;Max_cycle;Signal;HPM_P1;HPM_P2
2023/07/17 00:02:55;;;;;;;1.60;1.50;;;;;;;;;;6248640;28;20033;-66
2023/07/17 00:05:56;;;;;;;4.78;1.60;;;;;;;;;;6254444;28;20268;-71
2023/07/17 00:08:57;;;;;;;2.00;1.40;;;;;;;;;;6239163;28;20025;-66
2023/07/17 00:11:57;;;;;;;1.80;1.58;;;;;;;;;;6235931;28;20474;-67
2023/07/17 00:14:57;;;;;;;1.88;1.60;;;;;;;;;;6240183;28;20048;-67
2023/07/17 00:17:57;;;;;;;1.75;1.50;;;;;;;;;;6239202;28;20068;-67
2023/07/17 00:20:58;;;;;;;1.50;1.40;;;;;;;;;;6234262;28;20034;-68
2023/07/17 00:23:58;;;;;;;2.37;1.40;;;;;;;;;;6238132;28;20032;-67
2023/07/17 00:26:58;;;;;;;1.30;1.20;;;;;;;;;;6230591;28;20283;-66
2023/07/17 00:29:59;;;;;;;1.35;1.25;;;;;;;;;;6241500;28;20268;-66
2023/07/17 00:32:59;;;;;;;1.40;1.30;;;;;;;;;;6234408;28;20449;-66
2023/07/17 00:35:59;;;;;;;1.70;1.60;;;;;;;;;;6232523;28;20429;-66
2023/07/17 00:38:59;;;;;;;1.50;1.40;;;;;;;;;;6234969;28;20030;-66
2023/07/17 00:42:01;;;;;;;1.97;1.60;;;;;;;;;;6228047;28;20109;-65
2023/07/17 00:45:01;;;;;;;1.23;1.13;;;;;;;;;;6250135;28;20056;-66
2023/07/17 00:48:02;;;;;;;2.67;1.67;;;;;;;;;;6236370;28;20385;-67
2023/07/17 00:51:03;;;;;;;3.08;1.50;;;;;;;;;;6234673;28;20048;-67
2023/07/17 00:54:03;;;;;;;1.98;1.60;;;;;;;;;;6237891;28;20108;-70
2023/07/17 00:57:04;;;;;;;2.13;1.55;;;;;;;;;;6250866;28;20478;-67
2023/07/17 01:00:05;;;;;;;2.92;1.75;;;;;;;;;;6238151;28;20033;-67
2023/07/17 01:03:06;;;;;;;1.90;1.55;;;;;;;;;;6242693;28;20047;-69
2023/07/17 01:06:07;;;;;;;1.67;1.58;;;;;;;;;;6236500;28;20079;-68
2023/07/17 01:09:07;;;;;;;1.53;1.40;;;;;;;;;;6231567;28;20427;-67
2023/07/17 01:12:08;;;;;;;1.45;1.35;;;;;;;;;;6233707;28;20283;-68
2023/07/17 01:15:08;;;;;;;2.03;1.52;;;;;;;;;;6233527;28;20021;-67
2023/07/17 01:18:08;;;;;;;3.47;1.70;;;;;;;;;;6233242;28;20398;-69
2023/07/17 01:21:12;;;;;;;1.97;1.63;;;;;;;;;;6232510;28;20049;-67
2023/07/17 01:24:13;;;;;;;1.80;1.70;;;;;;;;;;6229869;28;20284;-67
2023/07/17 01:27:13;;;;;;;3.27;1.97;;;;;;;;;;6230307;28;20034;-67
2023/07/17 01:30:13;;;;;;;4.50;2.05;;;;;;;;;;6232239;28;20622;-67
2023/07/17 01:33:14;;;;;;;2.67;1.90;;;;;;;;;;6231271;28;20048;-68
2023/07/17 01:36:15;;;;;;;3.25;1.80;;;;;;;;;;6226499;28;20350;-67
2023/07/17 01:39:15;;;;;;;1.95;1.65;;;;;;;;;;6231859;28;20450;-68
2023/07/17 01:42:15;;;;;;;2.50;1.95;;;;;;;;;;6231925;28;20101;-68
2023/07/17 01:45:15;;;;;;;2.90;2.00;;;;;;;;;;6234279;28;20030;-70
2023/07/17 01:48:17;;;;;;;2.60;1.83;;;;;;;;;;6232298;28;20342;-67
2023/07/17 01:51:17;;;;;;;2.25;1.95;;;;;;;;;;6228841;28;20044;-68
2023/07/17 01:54:17;;;;;;;2.25;1.85;;;;;;;;;;6228683;28;20094;-68
2023/07/17 01:57:17;;;;;;;2.40;2.00;;;;;;;;;;6234775;28;20014;-68
2023/07/17 02:00:18;;;;;;;2.37;2.10;;;;;;;;;;6229995;28;20310;-68
2023/07/17 02:03:18;;;;;;;2.10;1.90;;;;;;;;;;6232095;28;20047;-69
2023/07/17 02:06:18;;;;;;;1.80;1.70;;;;;;;;;;6227541;28;20267;-68
2023/07/17 02:09:18;;;;;;;3.37;1.80;;;;;;;;;;6230134;28;20287;-68
2023/07/17 02:12:19;;;;;;;2.22;1.98;;;;;;;;;;6231046;28;20283;-69
2023/07/17 02:15:19;;;;;;;1.77;1.67;;;;;;;;;;6223683;28;20385;-67
2023/07/17 02:18:19;;;;;;;3.50;1.80;;;;;;;;;;6243965;28;20783;-68
2023/07/17 02:21:20;;;;;;;1.63;1.52;;;;;;;;;;6222010;28;20070;-67
2023/07/17 02:24:20;;;;;;;1.90;1.80;;;;;;;;;;6229455;28;20021;-67
2023/07/17 02:27:20;;;;;;;1.80;1.40;;;;;;;;;;6225628;28;20456;-67
2023/07/17 02:30:20;;;;;;;1.75;1.60;;;;;;;;;;6226849;28;20553;-68
2023/07/17 02:33:21;;;;;;;1.80;1.70;;;;;;;;;;6222418;28;20444;-69
2023/07/17 02:36:21;;;;;;;2.27;1.70;;;;;;;;;;6226294;28;20660;-68
2023/07/17 02:39:22;;;;;;;1.63;1.50;;;;;;;;;;6227414;28;20037;-68
2023/07/17 02:42:22;;;;;;;1.88;1.52;;;;;;;;;;6228852;28;20775;-67
2023/07/17 02:45:22;;;;;;;1.80;1.50;;;;;;;;;;6230188;28;20025;-67
2023/07/17 02:48:22;;;;;;;2.30;1.63;;;;;;;;;;6231930;28;20307;-65
2023/07/17 02:51:23;;;;;;;2.08;1.88;;;;;;;;;;6230846;28;20350;-69
2023/07/17 02:54:23;;;;;;;2.20;1.53;;;;;;;;;;6225583;28;20021;-65
2023/07/17 02:57:23;;;;;;;2.83;1.80;;;;;;;;;;6230148;28;20275;-68
2023/07/17 03:00:24;;;;;;;3.07;1.97;;;;;;;;;;6230401;28;20547;-68
2023/07/17 03:03:24;;;;;;;2.33;2.13;;;;;;;;;;6227113;28;20272;-68
2023/07/17 03:06:24;;;;;;;2.00;1.80;;;;;;;;;;6230199;28;20018;-68
2023/07/17 03:09:26;;;;;;;2.57;1.83;;;;;;;;;;6224777;28;20276;-67
2023/07/17 03:12:26;;;;;;;3.70;2.17;;;;;;;;;;6225816;28;20068;-66
2023/07/17 03:15:27;;;;;;;1.90;1.80;;;;;;;;;;6224098;28;20025;-68
2023/07/17 03:18:27;;;;;;;2.30;2.10;;;;;;;;;;6227847;28;20025;-67
2023/07/17 03:21:27;;;;;;;1.90;1.70;;;;;;;;;;6226125;28;20287;-67
2023/07/17 03:24:27;;;;;;;2.17;1.98;;;;;;;;;;6226700;28;20279;-66
2023/07/17 03:27:28;;;;;;;1.90;1.70;;;;;;;;;;6227343;28;20546;-69
2023/07/17 03:30:28;;;;;;;2.47;1.90;;;;;;;;;;6231770;28;20292;-68
2023/07/17 03:33:28;;;;;;;2.00;1.90;;;;;;;;;;6225374;28;20934;-71
2023/07/17 03:36:28;;;;;;;1.73;1.63;;;;;;;;;;6227698;28;20415;-68
2023/07/17 03:39:29;;;;;;;2.07;1.87;;;;;;;;;;6230656;28;20036;-68
2023/07/17 03:42:29;;;;;;;2.70;1.93;;;;;;;;;;6233978;28;20283;-68
2023/07/17 03:45:29;;;;;;;2.67;1.90;;;;;;;;;;6231834;28;20014;-67
2023/07/17 03:48:29;;;;;;;2.20;1.80;;;;;;;;;;6225995;28;20267;-68
2023/07/17 03:51:29;;;;;;;2.30;2.10;;;;;;;;;;6235976;28;20279;-67
2023/07/17 03:54:30;;;;;;;1.80;1.70;;;;;;;;;;6222127;28;20018;-68
2023/07/17 03:57:30;;;;;;;1.73;1.53;;;;;;;;;;6238895;28;20108;-67
2023/07/17 04:00:30;;;;;;;2.00;1.80;;;;;;;;;;6228504;28;20686;-67
2023/07/17 04:03:30;;;;;;;1.70;1.50;;;;;;;;;;6254229;28;20571;-67
2023/07/17 04:06:31;;;;;;;2.33;2.10;;;;;;;;;;6250307;28;20772;-66
2023/07/17 04:09:31;;;;;;;2.47;1.87;;;;;;;;;;6246578;28;20276;-66
2023/07/17 04:12:32;;;;;;;2.20;1.70;;;;;;;;;;6238392;28;20376;-67
2023/07/17 04:15:37;;;;;;;1.55;1.45;;;;;;;;;;5949342;28;10000916;-66
2023/07/17 04:18:37;;;;;;;1.73;1.35;;;;;;;;;;6237775;28;20265;-67
2023/07/17 04:21:37;;;;;;;2.43;1.57;;;;;;;;;;6236597;28;20022;-67
2023/07/17 04:24:37;;;;;;;2.03;1.67;;;;;;;;;;6239121;28;20159;-68
2023/07/17 04:27:37;;;;;;;2.37;1.83;;;;;;;;;;6225703;28;20374;-67
2023/07/17 04:30:38;;;;;;;2.73;1.63;;;;;;;;;;6226965;28;20280;-67
2023/07/17 04:33:38;;;;;;;2.10;1.90;;;;;;;;;;6229996;28;20626;-65
2023/07/17 04:36:38;;;;;;;2.73;1.90;;;;;;;;;;6226012;28;20759;-64
2023/07/17 04:39:38;;;;;;;4.50;1.80;;;;;;;;;;6232966;28;20346;-66
2023/07/17 04:42:39;;;;;;;2.23;1.90;;;;;;;;;;6228257;28;20034;-66
2023/07/17 04:45:42;;;;;;;2.92;1.63;;;;;;;;;;6225097;28;20279;-67
2023/07/17 04:48:42;;;;;;;2.13;1.92;;;;;;;;;;6226037;28;20037;-68
2023/07/17 04:51:43;;;;;;;2.73;2.20;;;;;;;;;;6233610;28;20569;-66
2023/07/17 04:54:43;;;;;;;1.90;1.57;;;;;;;;;;6232082;28;20025;-67
2023/07/17 04:57:43;;;;;;;1.90;1.70;;;;;;;;;;6229617;28;20288;-67
2023/07/17 05:00:46;;;;;;;2.20;1.77;;;;;;;;;;6228642;28;20029;-67
2023/07/17 05:03:46;;;;;;;1.85;1.67;;;;;;;;;;6231698;28;20032;-67
2023/07/17 05:06:46;;;;;;;1.70;1.60;;;;;;;;;;6234019;28;20379;-64
2023/07/17 05:09:46;;;;;;;2.20;2.00;;;;;;;;;;6230472;28;20354;-67
2023/07/17 05:12:47;;;;;;;2.10;1.83;;;;;;;;;;6229207;28;20282;-67
2023/07/17 05:15:47;;;;;;;1.77;1.67;;;;;;;;;;6244386;28;20280;-67
2023/07/17 05:18:47;;;;;;;2.33;2.08;;;;;;;;;;6227731;28;20285;-67
2023/07/17 05:21:47;;;;;;;2.10;1.87;;;;;;;;;;6230398;28;20021;-66
2023/07/17 05:24:48;;;;;;;1.97;1.87;;;;;;;;;;6223336;28;20508;-68
2023/07/17 05:27:48;;;;;;;2.17;1.60;;;;;;;;;;6233959;28;20781;-69
2023/07/17 05:30:52;;;;;;;2.63;1.80;;;;;;;;;;6226307;28;20613;-69
2023/07/17 05:33:52;;;;;;;1.73;1.63;;;;;;;;;;6226275;28;20496;-68
2023/07/17 05:36:52;;;;;;;1.90;1.80;;;;;;;;;;6228314;28;20076;-67
2023/07/17 05:39:53;;;;;;;2.67;1.77;;;;;;;;;;6233668;28;20033;-67
2023/07/17 05:42:53;;;;;;;1.63;1.53;;;;;;;;;;6233571;28;20272;-68
2023/07/17 05:45:53;;;;;;;3.33;2.27;;;;;;;;;;6223622;28;20736;-67
2023/07/17 05:48:54;;;;;;;2.20;1.80;;;;;;;;;;6228344;28;20033;-65
2023/07/17 05:51:54;;;;;;;1.97;1.87;;;;;;;;;;6225666;28;20055;-68
2023/07/17 05:54:54;;;;;;;3.80;1.90;;;;;;;;;;6228665;28;20125;-67
2023/07/17 05:57:55;;;;;;;1.67;1.58;;;;;;;;;;6229319;28;20449;-69
2023/07/17 06:00:55;;;;;;;1.87;1.60;;;;;;;;;;6229618;28;20071;-69
2023/07/17 06:03:55;;;;;;;2.03;1.70;;;;;;;;;;6229279;28;20280;-71
2023/07/17 06:06:55;;;;;;;1.70;1.60;;;;;;;;;;6223600;28;20028;-67
2023/07/17 06:09:56;;;;;;;1.67;1.57;;;;;;;;;;6232916;28;20421;-67
2023/07/17 06:12:56;;;;;;;1.75;1.65;;;;;;;;;;6227053;28;20419;-71
2023/07/17 06:15:56;;;;;;;1.92;1.70;;;;;;;;;;6230916;28;20025;-68
2023/07/17 06:18:56;;;;;;;2.40;2.07;;;;;;;;;;6224819;28;20018;-67
2023/07/17 06:21:56;;;;;;;2.20;2.03;;;;;;;;;;6227066;28;20355;-69
2023/07/17 06:24:57;;;;;;;2.27;2.07;;;;;;;;;;6223150;28;20033;-67
2023/07/17 06:27:57;;;;;;;2.73;2.13;;;;;;;;;;6224387;28;20143;-68
2023/07/17 06:30:58;;;;;;;3.77;2.90;;;;;;;;;;6222409;28;20110;-66
2023/07/17 06:33:58;;;;;;;4.57;3.08;;;;;;;;;;6226205;28;20477;-68
2023/07/17 06:37:00;;;;;;;5.10;3.07;;;;;;;;;;6226398;28;20055;-70
2023/07/17 06:40:00;;;;;;;6.13;2.83;;;;;;;;;;6228426;28;20642;-67
2023/07/17 06:43:01;;;;;;;5.63;2.90;;;;;;;;;;6222830;28;20025;-69
2023/07/17 06:46:01;;;;;;;3.10;2.43;;;;;;;;;;6198807;28;20022;-68
2023/07/17 06:49:01;;;;;;;3.43;2.10;;;;;;;;;;6162880;28;20049;-66
2023/07/17 06:52:01;;;;;;;3.67;2.30;;;;;;;;;;6180614;28;20095;-65
2023/07/17 06:55:02;;;;;;;5.63;2.67;;;;;;;;;;6180124;28;21019;-67
2023/07/17 06:58:02;;;;;;;2.90;2.25;;;;;;;;;;6177523;28;20179;-64
2023/07/17 07:01:03;;;;;;;2.63;2.40;;;;;;;;;;6180606;28;20359;-65
2023/07/17 07:04:03;;;;;;;2.53;2.30;;;;;;;;;;6185854;28;20383;-65
2023/07/17 07:07:04;;;;;;;2.40;2.20;;;;;;;;;;6193447;28;20439;-67
2023/07/17 07:10:04;;;;;;;3.58;2.25;;;;;;;;;;6200175;28;20103;-65
2023/07/17 07:13:05;;;;;;;2.40;2.15;;;;;;;;;;6191100;28;20686;-67
2023/07/17 07:16:05;;;;;;;2.40;2.20;;;;;;;;;;6186349;28;20028;-65
2023/07/17 07:19:05;;;;;;;2.90;2.30;;;;;;;;;;6198739;28;20033;-66
2023/07/17 07:22:05;;;;;;;2.58;2.22;;;;;;;;;;6183892;28;20036;-67
2023/07/17 07:25:06;;;;;;;2.73;2.30;;;;;;;;;;6185165;28;20070;-65
2023/07/17 07:28:06;;;;;;;3.17;2.20;;;;;;;;;;6189351;28;20669;-63
2023/07/17 07:31:07;;;;;;;4.70;2.17;;;;;;;;;;6192006;28;20107;-64
2023/07/17 07:34:07;;;;;;;3.50;2.47;;;;;;;;;;6188637;28;20860;-67
2023/07/17 07:37:07;;;;;;;2.30;2.00;;;;;;;;;;6185457;28;20907;-63
2023/07/17 07:40:11;;;;;;;1.90;1.80;;;;;;;;;;6188656;28;20091;-66
2023/07/17 07:43:12;;;;;;;3.78;2.38;;;;;;;;;;6184002;28;20017;-65
2023/07/17 07:46:12;;;;;;;2.85;1.90;;;;;;;;;;6183803;28;20068;-67
2023/07/17 07:49:13;;;;;;;3.97;2.23;;;;;;;;;;6187157;28;20029;-65
2023/07/17 07:52:13;;;;;;;4.75;2.25;;;;;;;;;;5838966;28;10000640;-65
2023/07/17 07:55:13;;;;;;;2.30;2.10;;;;;;;;;;6181847;28;20033;-65
2023/07/17 07:58:14;;;;;;;4.40;2.50;;;;;;;;;;6190386;28;21933;-65
2023/07/17 08:01:14;;;;;;;4.00;2.40;;;;;;;;;;6192058;28;20095;-64
2023/07/17 08:04:14;;;;;;;3.65;2.33;;;;;;;;;;5845035;28;10000665;-64
2023/07/17 08:07:14;;;;;;;5.67;2.70;;;;;;;;;;6185917;28;20140;-64
2023/07/17 08:10:14;;;;;;;5.03;2.77;;;;;;;;;;6183394;28;20056;-67
2023/07/17 08:13:15;;;;;;;4.50;2.57;;;;;;;;;;6186037;28;20128;-66
2023/07/17 08:16:15;;;;;;;4.07;2.30;;;;;;;;;;6183758;28;20431;-65
2023/07/17 08:19:18;;;;;;;3.13;2.57;;;;;;;;;;6183525;28;20076;-65
2023/07/17 08:22:19;;;;;;;2.75;2.38;;;;;;;;;;6183428;28;20733;-64
2023/07/17 08:25:19;;;;;;;3.33;2.20;;;;;;;;;;6181437;28;20087;-68
2023/07/17 08:28:19;;;;;;;3.40;2.53;;;;;;;;;;6186443;28;20130;-65
2023/07/17 08:31:19;;;;;;;6.37;2.20;;;;;;;;;;6196267;28;20532;-65
2023/07/17 08:34:22;;;;;;;3.17;2.40;;;;;;;;;;6190457;28;20374;-66
2023/07/17 08:37:23;;;;;;;2.83;2.53;;;;;;;;;;6182836;28;20039;-65
2023/07/17 08:40:25;;;;;;;2.33;2.13;;;;;;;;;;6177987;28;20087;-65
2023/07/17 08:43:27;;;;;;;3.25;2.40;;;;;;;;;;6176231;28;20025;-65
2023/07/17 08:46:28;;;;;;;2.45;2.25;;;;;;;;;;6183235;28;20023;-66
2023/07/17 08:49:29;;;;;;;2.65;2.03;;;;;;;;;;6186519;28;20030;-65
2023/07/17 08:52:30;;;;;;;3.45;2.58;;;;;;;;;;6187093;28;20839;-64
2023/07/17 08:55:31;;;;;;;3.00;2.50;;;;;;;;;;6179518;28;20127;-65
2023/07/17 08:58:32;;;;;;;2.20;2.00;;;;;;;;;;6187935;28;20138;-66
2023/07/17 09:01:32;;;;;;;2.67;2.38;;;;;;;;;;6195936;28;20029;-67
2023/07/17 09:04:33;;;;;;;2.97;1.90;;;;;;;;;;6193140;28;20025;-65
2023/07/17 09:07:33;;;;;;;2.40;2.20;;;;;;;;;;6187141;28;20391;-64
2023/07/17 09:10:35;;;;;;;2.57;2.10;;;;;;;;;;6186852;28;20473;-64
2023/07/17 09:13:43;;;;;;;2.63;2.42;;;;;;;;;;6189933;28;20522;-63
2023/07/17 09:16:43;;;;;;;2.97;2.38;;;;;;;;;;6192413;28;20033;-66
2023/07/17 09:19:43;;;;;;;2.60;2.40;;;;;;;;;;6193967;28;20096;-65
2023/07/17 09:22:43;;;;;;;2.57;2.27;;;;;;;;;;6190549;28;20025;-68
2023/07/17 09:25:47;;;;;;;2.17;1.97;;;;;;;;;;6186693;28;20104;-67
2023/07/17 09:28:49;;;;;;;3.97;2.60;;;;;;;;;;6186522;28;20355;-68
2023/07/17 09:31:49;;;;;;;2.60;2.40;;;;;;;;;;6194385;28;20041;-66
2023/07/17 09:35:01;;;;;;;2.85;2.22;;;;;;;;;;6183084;28;20033;-67
2023/07/17 09:38:07;;;;;;;3.63;2.60;;;;;;;;;;6185088;28;20474;-66
2023/07/17 09:41:18;;;;;;;3.10;2.80;;;;;;;;;;6193453;28;20520;-65
2023/07/17 09:44:18;;;;;;;3.40;2.60;;;;;;;;;;6199495;28;20021;-66
2023/07/17 09:47:19;;;;;;;2.70;2.45;;;;;;;;;;6200620;28;20029;-64
2023/07/17 09:50:22;;;;;;;4.55;2.90;;;;;;;;;;6188900;28;20030;-70
2023/07/17 09:53:24;;;;;;;2.95;2.22;;;;;;;;;;6188510;28;20345;-65
2023/07/17 09:56:27;;;;;;;2.85;2.20;;;;;;;;;;6194884;28;20033;-67
2023/07/17 09:59:29;;;;;;;2.38;2.17;;;;;;;;;;6187149;28;20034;-67
2023/07/17 10:02:33;;;;;;;2.78;2.08;;;;;;;;;;6182779;28;20129;-66
2023/07/17 10:05:33;;;;;;;3.40;2.45;;;;;;;;;;5846419;28;9999874;-65
2023/07/17 10:08:33;;;;;;;2.97;2.17;;;;;;;;;;6194326;28;20051;-66
2023/07/17 10:11:34;;;;;;;2.88;2.30;;;;;;;;;;6192459;28;20494;-66
2023/07/17 10:14:35;;;;;;;2.67;2.15;;;;;;;;;;6196638;28;20745;-65
2023/07/17 10:17:35;;;;;;;2.28;2.08;;;;;;;;;;6193981;28;20337;-64
2023/07/17 10:20:36;;;;;;;2.50;2.30;;;;;;;;;;6191608;28;21573;-64
2023/07/17 10:23:36;;;;;;;2.45;2.22;;;;;;;;;;6188701;28;20268;-65
2023/07/17 10:26:36;;;;;;;2.20;2.00;;;;;;;;;;6181102;28;20036;-66
2023/07/17 10:29:43;;;;;;;3.37;2.40;;;;;;;;;;6184152;28;20120;-65
2023/07/17 10:32:44;;;;;;;2.20;2.00;;;;;;;;;;6189343;28;20455;-65
2023/07/17 10:35:51;;;;;;;2.97;2.30;;;;;;;;;;6193536;28;20028;-64
2023/07/17 10:38:52;;;;;;;4.63;2.30;;;;;;;;;;6193224;28;20025;-66
2023/07/17 10:41:52;;;;;;;2.80;2.60;;;;;;;;;;6191198;28;20113;-66
2023/07/17 10:44:52;;;;;;;2.83;2.57;;;;;;;;;;6186426;28;20513;-64
2023/07/17 10:47:52;;;;;;;3.03;2.57;;;;;;;;;;6182088;28;20096;-64
2023/07/17 10:50:54;;;;;;;3.73;3.00;;;;;;;;;;6184515;28;20045;-65
2023/07/17 10:53:55;;;;;;;3.83;3.15;;;;;;;;;;6187286;28;20036;-65
2023/07/17 10:56:55;;;;;;;3.55;3.25;;;;;;;;;;6184695;28;20033;-66
2023/07/17 10:59:56;;;;;;;3.10;2.80;;;;;;;;;;6185438;28;20025;-66
2023/07/17 11:02:56;;;;;;;3.08;2.78;;;;;;;;;;6186106;28;21415;-67
2023/07/17 11:05:57;;;;;;;3.25;2.95;;;;;;;;;;6189144;28;20110;-66
2023/07/17 11:08:57;;;;;;;3.13;2.83;;;;;;;;;;6187168;28;20593;-65
2023/07/17 11:11:59;;;;;;;3.93;2.80;;;;;;;;;;6188808;28;20025;-64
2023/07/17 11:15:00;;;;;;;3.72;3.38;;;;;;;;;;6184744;28;20033;-66
2023/07/17 11:18:01;;;;;;;3.20;2.90;;;;;;;;;;6195425;28;20037;-67
2023/07/17 11:21:07;;;;;;;3.05;2.70;;;;;;;;;;6193710;28;20208;-66
2023/07/17 11:24:07;;;;;;;2.90;2.70;;;;;;;;;;6179388;28;21087;-68
2023/07/17 11:27:08;;;;;;;2.57;2.37;;;;;;;;;;6184997;28;20088;-67
2023/07/17 11:30:19;;;;;;;2.87;2.67;;;;;;;;;;6189445;28;20363;-67
2023/07/17 11:33:19;;;;;;;2.50;2.30;;;;;;;;;;6184974;28;20029;-67
2023/07/17 11:36:19;;;;;;;3.00;2.70;;;;;;;;;;6188200;28;20108;-66
2023/07/17 11:39:20;;;;;;;3.00;2.70;;;;;;;;;;6194919;28;20641;-66
2023/07/17 11:42:21;;;;;;;3.20;2.60;;;;;;;;;;6204907;28;20030;-67
2023/07/17 11:45:25;;;;;;;3.43;3.00;;;;;;;;;;6184325;28;20432;-66
2023/07/17 11:48:25;;;;;;;2.80;2.60;;;;;;;;;;6187869;28;20504;-66
2023/07/17 11:51:26;;;;;;;3.17;2.42;;;;;;;;;;6185330;28;20028;-66
2023/07/17 11:54:38;;;;;;;2.40;2.17;;;;;;;;;;6185360;28;21226;-64
2023/07/17 11:57:38;;;;;;;3.13;2.80;;;;;;;;;;6183811;28;20296;-64
2023/07/17 12:00:40;;;;;;;3.77;2.80;;;;;;;;;;6185223;28;20039;-65
2023/07/17 12:03:40;;;;;;;3.15;2.67;;;;;;;;;;6191618;28;20036;-66
2023/07/17 12:06:40;;;;;;;2.83;2.33;;;;;;;;;;6189389;28;20033;-66
2023/07/17 12:09:40;;;;;;;3.10;2.90;;;;;;;;;;6185134;28;20053;-65
2023/07/17 12:12:41;;;;;;;2.90;2.70;;;;;;;;;;6186675;28;20026;-66
2023/07/17 12:15:41;;;;;;;3.13;2.83;;;;;;;;;;6190428;28;20611;-66
2023/07/17 12:18:41;;;;;;;3.13;2.67;;;;;;;;;;6185196;28;20029;-65
2023/07/17 12:21:41;;;;;;;3.20;2.90;;;;;;;;;;6188110;28;20134;-67
2023/07/17 12:24:42;;;;;;;2.73;2.53;;;;;;;;;;6189651;28;20029;-65
2023/07/17 12:27:43;;;;;;;2.88;2.67;;;;;;;;;;6187252;28;20042;-65
2023/07/17 12:30:44;;;;;;;2.38;2.20;;;;;;;;;;6186281;28;21512;-64
2023/07/17 12:33:45;;;;;;;2.70;2.50;;;;;;;;;;6189708;28;20038;-64
2023/07/17 12:36:45;;;;;;;2.63;2.42;;;;;;;;;;6187884;28;20029;-65
2023/07/17 12:39:45;;;;;;;2.63;2.43;;;;;;;;;;6192592;28;20026;-65
2023/07/17 12:42:46;;;;;;;3.07;2.83;;;;;;;;;;6186717;28;20021;-66
2023/07/17 12:45:46;;;;;;;3.45;3.05;;;;;;;;;;6180470;28;20150;-65
2023/07/17 12:48:46;;;;;;;2.93;2.30;;;;;;;;;;6185257;28;20068;-68
2023/07/17 12:51:47;;;;;;;2.60;2.40;;;;;;;;;;6195423;28;21653;-65
2023/07/17 12:54:47;;;;;;;2.80;2.60;;;;;;;;;;6190027;28;20037;-64
2023/07/17 12:57:47;;;;;;;2.60;2.40;;;;;;;;;;6193457;28;20043;-65
2023/07/17 13:00:47;;;;;;;2.30;2.10;;;;;;;;;;6189787;28;20373;-65
2023/07/17 13:03:48;;;;;;;3.40;2.50;;;;;;;;;;6189397;28;20368;-66
2023/07/17 13:06:48;;;;;;;2.87;2.10;;;;;;;;;;6193721;28;20112;-68
2023/07/17 13:09:48;;;;;;;2.53;2.33;;;;;;;;;;6188397;28;20140;-68
2023/07/17 13:12:48;;;;;;;2.63;2.20;;;;;;;;;;6198601;28;20279;-65
2023/07/17 13:15:49;;;;;;;3.43;2.20;;;;;;;;;;6201589;28;21318;-67
2023/07/17 13:18:49;;;;;;;3.03;2.23;;;;;;;;;;6186963;28;20383;-69
2023/07/17 13:21:49;;;;;;;2.43;2.07;;;;;;;;;;6186313;28;20064;-69
2023/07/17 13:24:49;;;;;;;3.77;2.30;;;;;;;;;;6188485;28;20033;-67
2023/07/17 13:27:50;;;;;;;2.23;2.00;;;;;;;;;;6186620;28;20036;-67
2023/07/17 13:30:50;;;;;;;2.33;2.13;;;;;;;;;;6184643;28;20076;-67
2023/07/17 13:33:50;;;;;;;2.47;2.27;;;;;;;;;;6183674;28;20079;-64
2023/07/17 13:36:50;;;;;;;2.30;2.20;;;;;;;;;;6184103;28;20344;-68
2023/07/17 13:39:50;;;;;;;2.50;1.83;;;;;;;;;;6187281;28;20442;-66
2023/07/17 13:42:51;;;;;;;2.30;2.20;;;;;;;;;;6189892;28;21659;-65
2023/07/17 13:45:51;;;;;;;2.30;2.10;;;;;;;;;;6190820;28;20509;-65
2023/07/17 13:48:51;;;;;;;2.25;2.15;;;;;;;;;;6184634;28;20017;-67
2023/07/17 13:51:52;;;;;;;2.60;2.40;;;;;;;;;;6180784;28;20041;-67
2023/07/17 13:54:52;;;;;;;2.00;1.90;;;;;;;;;;6184206;28;20021;-66
2023/07/17 13:57:52;;;;;;;2.23;2.13;;;;;;;;;;6183054;28;20066;-70
2023/07/17 14:00:52;;;;;;;2.13;2.03;;;;;;;;;;6182590;28;20296;-68
2023/07/17 14:03:53;;;;;;;4.07;2.50;;;;;;;;;;6185677;28;20140;-65
2023/07/17 14:06:53;;;;;;;2.07;1.97;;;;;;;;;;6186784;28;20021;-67
2023/07/17 14:09:53;;;;;;;2.17;2.00;;;;;;;;;;6184694;28;20021;-66
2023/07/17 14:12:53;;;;;;;2.40;2.20;;;;;;;;;;6182717;28;20541;-66
2023/07/17 14:15:54;;;;;;;2.23;2.03;;;;;;;;;;6181587;28;20043;-65
2023/07/17 14:18:54;;;;;;;2.17;1.97;;;;;;;;;;6180694;28;20280;-66
2023/07/17 14:21:54;;;;;;;1.67;1.53;;;;;;;;;;6184236;28;20084;-66
2023/07/17 14:24:55;;;;;;;2.57;2.07;;;;;;;;;;6185368;28;20025;-70
2023/07/17 14:27:55;;;;;;;2.42;2.10;;;;;;;;;;6185905;28;20045;-66
2023/07/17 14:30:56;;;;;;;1.97;1.87;;;;;;;;;;6182466;28;20104;-66
2023/07/17 14:33:56;;;;;;;2.03;1.92;;;;;;;;;;6180368;28;20036;-67
2023/07/17 14:36:56;;;;;;;1.63;1.53;;;;;;;;;;6182941;28;20075;-69
2023/07/17 14:39:56;;;;;;;3.00;2.00;;;;;;;;;;6182298;28;20541;-66
2023/07/17 14:42:56;;;;;;;1.97;1.87;;;;;;;;;;6180961;28;20508;-65
2023/07/17 14:45:57;;;;;;;2.23;2.03;;;;;;;;;;6180815;28;21683;-68
2023/07/17 14:48:57;;;;;;;1.80;1.70;;;;;;;;;;6186598;28;20018;-66
2023/07/17 14:51:57;;;;;;;3.60;1.83;;;;;;;;;;6182483;28;20037;-68
2023/07/17 14:54:57;;;;;;;2.20;2.00;;;;;;;;;;6204936;28;20036;-66
2023/07/17 14:57:58;;;;;;;1.87;1.77;;;;;;;;;;6185906;28;20112;-66
2023/07/17 15:00:58;;;;;;;1.70;1.60;;;;;;;;;;6183966;28;20477;-67
2023/07/17 15:03:58;;;;;;;1.90;1.80;;;;;;;;;;6188266;28;20090;-66
2023/07/17 15:06:58;;;;;;;1.90;1.80;;;;;;;;;;6175319;28;20040;-66
2023/07/17 15:09:59;;;;;;;1.73;1.63;;;;;;;;;;6179203;28;20040;-64
2023/07/17 15:12:59;;;;;;;1.97;1.87;;;;;;;;;;6180234;28;20505;-67
2023/07/17 15:15:59;;;;;;;2.07;1.93;;;;;;;;;;6181752;28;20047;-66
2023/07/17 15:18:59;;;;;;;2.83;1.80;;;;;;;;;;6181929;28;20241;-66
2023/07/17 15:21:59;;;;;;;1.67;1.57;;;;;;;;;;6180446;28;20479;-65
2023/07/17 15:25:00;;;;;;;2.00;1.80;;;;;;;;;;6180164;28;20037;-65
2023/07/17 15:28:00;;;;;;;1.70;1.57;;;;;;;;;;6186633;28;21166;-66
2023/07/17 15:31:00;;;;;;;1.83;1.63;;;;;;;;;;6189051;28;20180;-67
2023/07/17 15:34:00;;;;;;;1.70;1.60;;;;;;;;;;6184715;28;20025;-65
2023/07/17 15:37:01;;;;;;;1.70;1.60;;;;;;;;;;6187699;28;20029;-65
2023/07/17 15:40:03;;;;;;;1.53;1.40;;;;;;;;;;6185703;28;20033;-68
2023/07/17 15:43:03;;;;;;;1.35;1.25;;;;;;;;;;6187179;28;20700;-66
2023/07/17 15:46:03;;;;;;;1.47;1.27;;;;;;;;;;6188714;28;20495;-64
2023/07/17 15:49:04;;;;;;;1.50;1.40;;;;;;;;;;6185149;28;20270;-65
2023/07/17 15:52:04;;;;;;;1.93;1.40;;;;;;;;;;6186624;28;20041;-65
2023/07/17 15:55:05;;;;;;;1.27;1.20;;;;;;;;;;6189810;28;20280;-66
2023/07/17 15:58:05;;;;;;;1.92;1.50;;;;;;;;;;6192461;28;20029;-65
2023/07/17 16:01:05;;;;;;;1.17;1.07;;;;;;;;;;6192086;28;20450;-67
2023/07/17 16:04:05;;;;;;;1.40;1.30;;;;;;;;;;6183917;28;20088;-66
2023/07/17 16:07:06;;;;;;;1.43;1.30;;;;;;;;;;6184194;28;20030;-67
2023/07/17 16:10:06;;;;;;;1.33;1.23;;;;;;;;;;6189427;28;20487;-67
2023/07/17 16:13:06;;;;;;;1.52;1.30;;;;;;;;;;6199951;28;20370;-67
2023/07/17 16:16:07;;;;;;;1.40;1.30;;;;;;;;;;6188993;28;20120;-67
2023/07/17 16:19:07;;;;;;;1.55;1.45;;;;;;;;;;6183717;28;20017;-67
2023/07/17 16:22:07;;;;;;;1.93;1.60;;;;;;;;;;6205846;28;20029;-67
2023/07/17 16:25:07;;;;;;;1.30;1.20;;;;;;;;;;6185063;28;20045;-67
2023/07/17 16:28:08;;;;;;;1.30;1.20;;;;;;;;;;6187622;28;20439;-65
2023/07/17 16:31:08;;;;;;;1.50;1.30;;;;;;;;;;6184817;28;20440;-66
2023/07/17 16:34:08;;;;;;;1.57;1.20;;;;;;;;;;6187090;28;20041;-66
2023/07/17 16:37:08;;;;;;;1.23;1.13;;;;;;;;;;6187299;28;21008;-69
2023/07/17 16:40:09;;;;;;;1.20;1.10;;;;;;;;;;6187938;28;20494;-67
2023/07/17 16:43:09;;;;;;;1.50;1.08;;;;;;;;;;6186637;28;20276;-69
2023/07/17 16:46:09;;;;;;;1.30;1.20;;;;;;;;;;6190980;28;20203;-71
2023/07/17 16:49:10;;;;;;;2.13;1.40;;;;;;;;;;6182215;28;20045;-72
2023/07/17 16:52:10;;;;;;;1.43;1.20;;;;;;;;;;6190589;28;20033;-70
2023/07/17 16:55:10;;;;;;;1.40;1.30;;;;;;;;;;6190767;28;20462;-71
2023/07/17 16:58:12;;;;;;;1.30;1.20;;;;;;;;;;6189355;28;20276;-72
2023/07/17 17:01:12;;;;;;;1.38;1.27;;;;;;;;;;6187930;28;20136;-71
2023/07/17 17:04:12;;;;;;;1.63;1.23;;;;;;;;;;6189166;28;20181;-71
2023/07/17 17:07:13;;;;;;;1.20;1.07;;;;;;;;;;6189449;28;20272;-69
2023/07/17 17:10:13;;;;;;;1.30;1.20;;;;;;;;;;6187531;28;20026;-71
2023/07/17 17:13:13;;;;;;;1.37;1.20;;;;;;;;;;6188996;28;20025;-71
2023/07/17 17:16:13;;;;;;;1.43;1.33;;;;;;;;;;6189130;28;20025;-69
2023/07/17 17:19:14;;;;;;;1.30;1.20;;;;;;;;;;6190997;28;20034;-71
2023/07/17 17:22:16;;;;;;;1.23;1.13;;;;;;;;;;6194323;28;20321;-71
2023/07/17 17:25:17;;;;;;;1.48;1.10;;;;;;;;;;6187413;28;20058;-71
2023/07/17 17:28:17;;;;;;;5.97;1.95;;;;;;;;;;5845120;28;10000220;-71
2023/07/17 17:31:17;;;;;;;2.43;2.23;;;;;;;;;;6192678;28;20116;-70
2023/07/17 17:34:17;;;;;;;1.88;1.77;;;;;;;;;;6197027;28;20733;-72
2023/07/17 17:37:18;;;;;;;1.83;1.40;;;;;;;;;;6190579;28;21404;-71
2023/07/17 17:40:18;;;;;;;2.50;2.30;;;;;;;;;;6187795;28;20358;-69
2023/07/17 17:43:18;;;;;;;1.30;1.20;;;;;;;;;;6192513;28;20579;-70
2023/07/17 17:46:18;;;;;;;1.60;1.47;;;;;;;;;;6193248;28;20029;-70
2023/07/17 17:49:19;;;;;;;1.97;1.23;;;;;;;;;;6189255;28;20728;-72
2023/07/17 17:52:19;;;;;;;1.17;1.07;;;;;;;;;;6194387;28;20777;-69
2023/07/17 17:55:19;;;;;;;2.65;1.02;;;;;;;;;;6187497;28;20430;-69
2023/07/17 17:58:21;;;;;;;1.30;1.17;;;;;;;;;;6184832;28;20106;-69
2023/07/17 18:01:21;;;;;;;1.77;1.08;;;;;;;;;;6184561;28;20040;-70
2023/07/17 18:04:21;;;;;;;1.37;1.00;;;;;;;;;;6186567;28;20030;-69